Preview of NWS' New Version of Forecast
This preview is not operational and should not be used for support decisions.

Terminal Aerodrome Forecast (TAF)

Issued by National Weather Service (NWS)

                            
000
FTUS46 KMTR 211126
TAFSTS
TAF
KSTS 211126Z 2112/2212 VRB03KT P6SM SKC
     FM212100 21007KT P6SM SKC
     FM220400 VRB03KT P6SM SKC
     FM220800 00000KT P6SM SCT002
     FM221100 00000KT 1/2SM FG VV002=